Jonathan Harvey

Scout - Bristol City
10 Sep 2028
Sonntag
Verarbeitung

Persönlichkeit

Anpassungsfähigkeit (7) Ehrgeiz (8) Kontroverse (18) Loyalität (2) Druck (14) Professionalität (6) Fairness (4) Temperament (4)

Profil

Trainerstil Demokratisch
Lizenz Kontinentale A
Entschlossenheit 5
Menschenführung 4
Motivation 8
Disziplin 9
Arbeitszufriedenheit
100%
Ermüdung
0%
Rolle Scout
Gehalt 33.0K p/W
Vertrag 14.03.2030

Leistung

Verhalten Gut
Trainingseffektivität
48%
Spielerentwicklung
45%
Verletzungsprävention
35%
Taktische Umsetzung
65%

Letzte Ereignisse

Nahm an einer Scouting-Besprechung teil 7T her
Empfahl ein Transferziel 7T her
Nahm an einer Scouting-Besprechung teil 14T her
Empfahl ein Transferziel 14T her
Geburtstag 14T her
Nahm an einer Scouting-Besprechung teil 21T her
Empfahl ein Transferziel 21T her
Empfahl ein Transferziel 28T her

Aktuell beobachtet

107
Spieler Verein Status Fähigkeit Vertrauen Beobachtet Zuletzt beobachtet Letzte Stimme
Ben Broggio Mansfield Town Aktiv 116 / 126 40% 2 10.07.2028 -
Amin Nabizada Exeter City Aktiv 112 / 110 40% 1 10.07.2028 -
Amine Boukamir Charleroi Aktiv 100 / 115 40% 6 19.06.2028 -
Honest Ahanor Atalanta Aktiv 139 / 137 40% 6 19.06.2028 -
Nicolò Moranduzzo Renate Aktiv 94 / 98 40% 3 19.06.2028 -
Carl Piergianni Stevenage Bericht bereit 103 / 112 65% 1 19.06.2028 -
Celías Ingenthron Platense Aktiv 112 / 114 40% 1 04.06.2028 -
Jan Bürger Northampton Town Aktiv 129 / 135 40% 11 01.06.2028 -
Federico Matarán Giana Erminio Verloren 100 / 111 40% 1 01.06.2028 -
Christos Mouzakitis Hull City Aktiv 139 / 145 40% 6 28.05.2028 -
Josh Nichols Oldham Athletic Aktiv 120 / 134 40% 6 28.05.2028 -
Tobiáš Pališčák Zlin Aktiv 94 / 122 40% 3 24.05.2028 -
Jorthy Mokio ADO Den Haag Aktiv 130 / 132 40% 3 23.05.2028 -
Tyler Fletcher Rotherham United Aktiv 107 / 127 40% 2 22.05.2028 -
Ronan Kpakio AC Milan Aktiv 128 / 126 40% 5 21.05.2028 -
Trey Nyoni Rotherham United Aktiv 135 / 151 40% 4 20.05.2028 -
Andrey Ivlev Nizhniy Novgorod Aktiv 122 / 110 40% 1 20.05.2028 -
Daniel Banjaqui Benfica Aktiv 122 / 121 40% 3 19.05.2028 -
Olivier Leroux Mouscron Aktiv 101 / 113 40% 3 16.05.2028 -
Kiani Inge Groningen Aktiv 107 / 120 40% 5 09.05.2028 -
Ayden Heaven Portsmouth Aktiv 142 / 147 40% 4 09.05.2028 -
Martim Cunha Porto Aktiv 100 / 116 40% 4 07.05.2028 -
Andrea Cogoni Cosenza Aktiv 109 / 119 40% 2 04.05.2028 -
Giovanni Leoni Lincoln City Aktiv 141 / 155 40% 3 02.05.2028 -
Riquelme Thompson-Jones Accrington Stanley Aktiv 109 / 115 40% 3 01.05.2028 -
Musa Danjuma Umraniyespor Aktiv 109 / 104 40% 1 30.04.2028 -
Bernardo Lima Porto Aktiv 105 / 113 40% 3 27.04.2028 -
Tobías Ramírez River Plate Aktiv 118 / 141 40% 1 23.04.2028 -
Josh Acheampong Everton Aktiv 134 / 157 40% 4 18.04.2028 -
Gideon Manaseh Ikorodu City Aktiv 100 / 99 40% 1 18.04.2028 -
Miguel Figueiredo Benfica Aktiv 119 / 131 40% 4 14.04.2028 -
Augusto Bando Ascoli Aktiv 117 / 112 40% 1 14.04.2028 -
Nicolas Sport Recife Aktiv 95 / 108 40% 1 12.04.2028 -
Andrea Bertoncini Triestina Aktiv 94 / 100 40% 1 12.04.2028 -
Makar Vysochenko Spartak Moscow Aktiv 83 / 85 40% 2 11.04.2028 -
Olivier Mambwa Young Boys Aktiv 106 / 129 40% 1 06.04.2028 -
Victor Hernandez Santa Fe Aktiv 107 / 118 40% 3 21.03.2028 -
Caleb Yirenkyi Coventry City Aktiv 140 / 138 40% 4 26.12.2027 -
Luighi Palmeiras Aktiv 118 / 126 40% 2 26.12.2027 -
Francisco Triver River Plate Aktiv 98 / 83 40% 2 22.12.2027 -
Jayden Danns Bradford City Aktiv 145 / 133 40% 1 22.12.2027 -
Gonçalo Moreira Benfica Aktiv 117 / 126 40% 1 20.12.2027 -
Dylan Cabral Arsenal Aktiv 108 / 117 40% 1 20.12.2027 -
Sindre Walle Egeli Udinese Aktiv 141 / 133 40% 2 16.12.2027 -
Francisco Marchant Colo-Colo Aktiv 101 / 101 40% 1 16.12.2027 -
Igor Tyjon Barrow AFC Aktiv 121 / 127 40% 1 15.12.2027 -
Musa Malik Ikorodu City Aktiv 95 / 99 40% 2 14.12.2027 -
Olger Escobar CF Montreal Aktiv 102 / 120 40% 3 09.12.2027 -
Giovanni Baroni Talleres Aktiv 115 / 113 40% 1 09.12.2027 -
Jonny Shore New York City Aktiv 108 / 91 40% 2 04.12.2027 -
Ruben Ramos LA Galaxy Aktiv 97 / 114 40% 1 30.11.2027 -
Babis Kostoulas Oxford United Aktiv 145 / 146 40% 2 27.11.2027 -
Dániel Pintér Inter Miami CF Aktiv 101 / 105 40% 1 27.11.2027 -
Andy Rojas New York Red Bulls Aktiv 109 / 115 40% 1 22.11.2027 -
Gonçalo Oliveira Benfica Aktiv 119 / 112 40% 3 31.05.2027 -
Godwin Oham Warri Wolves Aktiv 96 / 88 40% 2 31.05.2027 -
Charlie Gray Fleetwood Town Aktiv 91 / 85 40% 2 25.05.2027 -
Hosea Michael Remo Stars Aktiv 88 / 102 40% 1 25.05.2027 -
Riley Owen Stevenage Aktiv 107 / 117 40% 3 24.05.2027 -
Mustapha Jawad Kano Pillars Aktiv 86 / 95 40% 2 24.05.2027 -
Tiago Freitas Benfica Aktiv 102 / 114 40% 4 22.05.2027 -
Kazunari Kita Real Sociedad Aktiv 95 / 107 40% 4 20.05.2027 -
Tommaso Cecotti Carpi Aktiv 96 / 101 40% 3 20.05.2027 -
Daniel Dennis Ikorodu City Aktiv 84 / 101 40% 2 12.05.2027 -
Lucas Bergvall Tottenham Aktiv 153 / 142 40% 3 04.05.2027 -
Ezra Mayers West Ham United Aktiv 121 / 117 40% 2 04.05.2027 -
Kamaldeen Atiemo Wa All Stars Aktiv 94 / 98 40% 4 03.05.2027 -
Jenson Jones Walsall Aktiv 96 / 105 40% 2 03.05.2027 -
Sascha Britschgi AC Milan Aktiv 124 / 120 40% 3 27.04.2027 -
Zane Albarus Shrewsbury Town Aktiv 100 / 106 40% 3 24.04.2027 -
Issa Yusuf Shooting Stars Aktiv 87 / 81 40% 1 24.04.2027 -
Ahmed Akinyele Remo Stars Aktiv 100 / 95 40% 1 21.04.2027 -
Konta Ismaily Aktiv 85 / 83 40% 1 12.04.2027 -
David Ozoh Derby County Aktiv 130 / 136 40% 2 01.04.2027 -
James Dornelly Peterborough United Aktiv 107 / 106 40% 1 22.03.2027 -
Leandro Martins Benfica Aktiv 92 / 92 40% 1 12.03.2027 -
Afriyie Sulemana WAFA Aktiv 93 / 95 40% 1 06.03.2027 -
Bradley de Jesus Nacional Aktiv 93 / 91 40% 1 03.03.2027 -
Cemran Dansin Orlando Pirates Aktiv 97 / 114 40% 1 11.01.2027 -
Nikita Krivtsov Krasnodar Aktiv 124 / 141 40% 1 28.12.2026 -
Harry Clarke Preston Aktiv 131 / 138 40% 1 28.12.2026 -
Dennis Cirkin Queens Park Rangers Aktiv 124 / 128 40% 1 28.12.2026 -
Diogo Dalot Manchester United Aktiv 148 / 155 40% 1 27.12.2026 -
Nathan Collins Brentford Aktiv 152 / 135 40% 1 16.12.2026 -
Aaron Hickey Brentford Aktiv 147 / 151 40% 1 16.12.2026 -
Brooke Norton-Cuffy Hull City Aktiv 128 / 143 40% 1 16.12.2026 -
Max Johnston Derby County Aktiv 131 / 123 40% 5 15.12.2026 -
Ousmane Diomande Nottingham Forest Aktiv 145 / 153 40% 1 15.12.2026 -
Alex Scott Bournemouth Aktiv 152 / 160 40% 2 14.12.2026 -
Shea Charles Southampton Aktiv 136 / 129 40% 1 11.12.2026 -
André Wolverhampton Aktiv 143 / 137 40% 1 10.12.2026 -
Manu Morlanes Mallorca Aktiv 143 / 127 40% 1 10.12.2026 -
Jacques Ekomié Wrexham Aktiv 133 / 132 40% 1 07.12.2026 -
Aidan Morris Middlesbrough Aktiv 133 / 130 40% 2 18.11.2026 -
Welington Southampton Aktiv 138 / 130 40% 1 18.11.2026 -
Kristoffer Lund Birmingham Aktiv 120 / 136 40% 1 09.11.2026 -
Japhet Sery Larsen Philadelphia Union Aktiv 114 / 118 40% 1 09.11.2026 -
Alessandro Buongiorno Cagliari Aktiv 153 / 149 40% 1 08.11.2026 -
Jakub Moder Burnley Aktiv 135 / 148 40% 2 06.11.2026 -
Nectar Triantis Minnesota United FC Aktiv 137 / 142 40% 1 06.11.2026 -
Max Bird Birmingham Aktiv 126 / 122 40% 1 02.11.2026 -
Lasse Berg Johnsen Sporting Kansas City Aktiv 130 / 117 40% 1 06.10.2026 -
Juan Manuel Sanabria Real Salt Lake Aktiv 127 / 138 40% 1 05.10.2026 -
Jacob Greaves Ipswich Town Aktiv 129 / 124 40% 1 05.10.2026 -
Jamie Reid Stevenage Aktiv 115 / 117 65% 1 03.08.2026 Befürworten
Heung-Min Son Los Angeles Football Club Aktiv 158 / 151 40% 1 01.08.2026 -
Guilherme Houston Dynamo Aktiv 129 / 141 40% 1 01.08.2026 -